Warning: include(wt_data_intl.php): failed to open stream: No such file or directory in /datas/vol1/w4a123858/var/www/legheer.be/meteo3/wuh.php on line 24

Warning: include(): Failed opening 'wt_data_intl.php' for inclusion (include_path='.:/opt/alt/php56/usr/share/pear') in /datas/vol1/w4a123858/var/www/legheer.be/meteo3/wuh.php on line 24
| Quelques graphiques

Language: 


Des rapports , des résumés tant et plus, au choix de chacun....


Données statistiques de la station
Quotidien Rapport Février 16, 2017 Unités:  les deux    Anglais   Métrique
« Précédent Jour
Suivant Jour »
Quotidien Hebdomadaire Mensuel Annuel Actuel
  Haut: Bas: Moyen:
Température: TemperatureC °F /  -17.8 °C 0.0 °F /  -17.8 °C 5.7 °F /  -14.6 °C
Pt de rosée: DewpointC °F /  -17.8 °C 0.8 °F /  -17.3 °C 5.2 °F /  -14.9 °C
Humidité: Humidity % 0 % 96 %
Vitesse du vent: WindSpeedKMH mph /  0 km/h - 5.1 mph /  8.2 km/h
Rafales: WindSpeedGustKMH mph /  0 km/h - -
Vent:- - West
Pression: PressurehPa in /  0 hPa 0.0 in /  0 hPa -
Précipitation: 0.0 in /  0 mm    
Historical Graphs
 
 
Données statistiques pour Février 16, 2017
Heure Température Point de rosée Pression Vent Vitesse du vent Refales Humidité Pluie (taux horaire)
TemperatureC °F /  -17.8 °C DewpointC °F /  -17.8 °C PressurehPa in /  0 hPa Calm     Humidity % HourlyPrecipMM in /  0 mm
00:03 4.2 °F /  -15.4 °C 3.5 °F /  -15.8 °C 1030.0 in /  34875.8 hPa SSW 4.3 mph /  6.9 km/h 5.0 mph /  8 km/h 95 % 0.0 in /  0 mm
00:08 4.2 °F /  -15.4 °C 3.5 °F /  -15.8 °C 1030.0 in /  34875.8 hPa Calm   5.0 mph /  8 km/h 95 % 0.0 in /  0 mm
00:13 4.1 °F /  -15.5 °C 3.4 °F /  -15.9 °C 1030.0 in /  34875.8 hPa Calm   4.3 mph /  6.9 km/h 95 % 0.0 in /  0 mm
00:18 4.0 °F /  -15.6 °C 3.4 °F /  -15.9 °C 1030.0 in /  34875.8 hPa Calm   3.2 mph /  5.1 km/h 96 % 0.0 in /  0 mm
00:23 4.0 °F /  -15.6 °C 3.4 °F /  -15.9 °C 1030.0 in /  34875.8 hPa Calm   4.7 mph /  7.6 km/h 96 % 0.0 in /  0 mm
00:28 4.0 °F /  -15.6 °C 3.4 °F /  -15.9 °C 1030.0 in /  34875.8 hPa Calm   4.7 mph /  7.6 km/h 96 % 0.0 in /  0 mm
00:33 3.9 °F /  -15.6 °C 3.3 °F /  -15.9 °C 1030.0 in /  34875.8 hPa Calm     96 % 0.0 in /  0 mm
00:38 3.9 °F /  -15.6 °C 3.3 °F /  -15.9 °C 1030.0 in /  34875.8 hPa Calm   1.4 mph /  2.3 km/h 96 % 0.0 in /  0 mm
00:43 3.8 °F /  -15.7 °C 3.4 °F /  -15.9 °C 1030.0 in /  34875.8 hPa Calm   1.4 mph /  2.3 km/h 97 % 0.0 in /  0 mm
00:48 3.9 °F /  -15.6 °C 3.5 °F /  -15.8 °C 1030.0 in /  34875.8 hPa Calm   3.2 mph /  5.1 km/h 97 % 0.0 in /  0 mm
00:53 3.9 °F /  -15.6 °C 3.5 °F /  -15.8 °C 1030.0 in /  34875.8 hPa SSW 3.5 mph /  5.6 km/h 3.5 mph /  5.6 km/h 97 % 0.0 in /  0 mm
00:58 3.8 °F /  -15.7 °C 3.4 °F /  -15.9 °C 1030.0 in /  34875.8 hPa WSW 3.2 mph /  5.1 km/h 3.5 mph /  5.6 km/h 97 % 0.0 in /  0 mm
01:03 3.9 °F /  -15.6 °C 3.5 °F /  -15.8 °C 1030.0 in /  34875.8 hPa Calm   3.5 mph /  5.6 km/h 97 % 0.0 in /  0 mm
01:08 3.9 °F /  -15.6 °C 3.5 °F /  -15.8 °C 1031.0 in /  34909.7 hPa Calm   3.2 mph /  5.1 km/h 97 % 0.0 in /  0 mm
01:14 3.8 °F /  -15.7 °C 3.4 °F /  -15.9 °C 1031.0 in /  34909.7 hPa Calm     97 % 0.0 in /  0 mm
01:19 3.7 °F /  -15.7 °C 3.3 °F /  -15.9 °C 1031.0 in /  34909.7 hPa Calm     97 % 0.0 in /  0 mm
01:24 3.6 °F /  -15.8 °C 3.2 °F /  -16 °C 1031.0 in /  34909.7 hPa Calm     97 % 0.0 in /  0 mm
01:29 3.6 °F /  -15.8 °C 3.1 °F /  -16.1 °C 1031.0 in /  34909.7 hPa Calm     97 % 0.0 in /  0 mm
01:34 3.4 °F /  -15.9 °C 3.0 °F /  -16.1 °C 1031.0 in /  34909.7 hPa Calm     97 % 0.0 in /  0 mm
01:39 3.3 °F /  -15.9 °C 2.9 °F /  -16.2 °C 1031.0 in /  34909.7 hPa Calm     97 % 0.0 in /  0 mm
01:44 3.3 °F /  -15.9 °C 2.9 °F /  -16.2 °C 1031.0 in /  34909.7 hPa Calm     97 % 0.0 in /  0 mm
01:49 3.2 °F /  -16 °C 2.8 °F /  -16.2 °C 1031.0 in /  34909.7 hPa Calm   3.2 mph /  5.1 km/h 97 % 0.0 in /  0 mm
01:54 3.2 °F /  -16 °C 2.8 °F /  -16.2 °C 1030.0 in /  34875.8 hPa Calm   3.2 mph /  5.1 km/h 97 % 0.0 in /  0 mm
01:59 3.6 °F /  -15.8 °C 3.2 °F /  -16 °C 1030.0 in /  34875.8 hPa Calm   4.3 mph /  6.9 km/h 98 % 0.0 in /  0 mm
02:04 3.8 °F /  -15.7 °C 3.6 °F /  -15.8 °C 1030.0 in /  34875.8 hPa Calm   5.0 mph /  8 km/h 98 % 0.0 in /  0 mm
02:09 4.0 °F /  -15.6 °C 3.7 °F /  -15.7 °C 1030.0 in /  34875.8 hPa West 2.1 mph /  3.4 km/h 5.0 mph /  8 km/h 98 % 0.0 in /  0 mm
02:14 4.0 °F /  -15.6 °C 3.7 °F /  -15.7 °C 1030.0 in /  34875.8 hPa Calm   5.0 mph /  8 km/h 98 % 0.0 in /  0 mm
02:19 4.0 °F /  -15.6 °C 3.7 °F /  -15.7 °C 1030.0 in /  34875.8 hPa Calm   3.5 mph /  5.6 km/h 98 % 0.0 in /  0 mm
02:24 4.0 °F /  -15.6 °C 3.7 °F /  -15.7 °C 1031.0 in /  34909.7 hPa West 3.2 mph /  5.1 km/h 4.0 mph /  6.4 km/h 98 % 0.0 in /  0 mm
02:29 3.8 °F /  -15.7 °C 3.6 °F /  -15.8 °C 1031.0 in /  34909.7 hPa Calm   5.5 mph /  8.9 km/h 98 % 0.0 in /  0 mm
02:34 3.6 °F /  -15.8 °C 3.3 °F /  -15.9 °C 1031.0 in /  34909.7 hPa Calm   5.5 mph /  8.9 km/h 98 % 0.0 in /  0 mm
02:39 3.7 °F /  -15.7 °C 3.4 °F /  -15.9 °C 1031.0 in /  34909.7 hPa Calm   1.4 mph /  2.3 km/h 98 % 0.0 in /  0 mm
02:44 3.6 °F /  -15.8 °C 3.3 °F /  -15.9 °C 1031.0 in /  34909.7 hPa West 4.7 mph /  7.6 km/h 4.7 mph /  7.6 km/h 98 % 0.0 in /  0 mm
02:49 3.3 °F /  -15.9 °C 3.1 °F /  -16.1 °C 1031.0 in /  34909.7 hPa West 3.5 mph /  5.6 km/h 5.5 mph /  8.9 km/h 98 % 0.0 in /  0 mm
02:54 3.1 °F /  -16.1 °C 2.7 °F /  -16.3 °C 1030.0 in /  34875.8 hPa Calm   5.8 mph /  9.3 km/h 97 % 0.0 in /  0 mm
02:59 2.9 °F /  -16.2 °C 2.5 °F /  -16.4 °C 1030.0 in /  34875.8 hPa West 4.3 mph /  6.9 km/h 5.8 mph /  9.3 km/h 97 % 0.0 in /  0 mm
03:06 0.0 °F /  -17.8 °C 2.1 °F /  -16.6 °C 0.0 in /  0 hPa West 1.4 mph /  2.3 km/h 4.3 mph /  6.9 km/h 0 % 0.0 in /  0 mm
03:11 2.3 °F /  -16.5 °C 1.8 °F /  -16.8 °C 1030.0 in /  34875.8 hPa West 4.0 mph /  6.4 km/h 4.0 mph /  6.4 km/h 97 % 0.0 in /  0 mm
03:16 2.3 °F /  -16.5 °C 1.8 °F /  -16.8 °C 1030.0 in /  34875.8 hPa Calm   4.0 mph /  6.4 km/h 97 % 0.0 in /  0 mm
03:21 2.2 °F /  -16.6 °C 1.7 °F /  -16.8 °C 1030.0 in /  34875.8 hPa Calm   4.0 mph /  6.4 km/h 97 % 0.0 in /  0 mm
03:26 2.1 °F /  -16.6 °C 1.6 °F /  -16.9 °C 1030.0 in /  34875.8 hPa Calm   4.0 mph /  6.4 km/h 97 % 0.0 in /  0 mm
03:31 1.9 °F /  -16.7 °C 1.7 °F /  -16.8 °C 1030.0 in /  34875.8 hPa West 1.8 mph /  2.9 km/h 4.0 mph /  6.4 km/h 98 % 0.0 in /  0 mm
03:36 2.1 °F /  -16.6 °C 1.8 °F /  -16.8 °C 1030.0 in /  34875.8 hPa Calm   4.3 mph /  6.9 km/h 98 % 0.0 in /  0 mm
03:41 2.1 °F /  -16.6 °C 1.8 °F /  -16.8 °C 1030.0 in /  34875.8 hPa Calm   4.3 mph /  6.9 km/h 98 % 0.0 in /  0 mm
03:51 2.1 °F /  -16.6 °C 1.8 °F /  -16.8 °C 1030.0 in /  34875.8 hPa Calm     98 % 0.0 in /  0 mm
03:56 2.1 °F /  -16.6 °C 1.8 °F /  -16.8 °C 1030.0 in /  34875.8 hPa Calm   3.2 mph /  5.1 km/h 98 % 0.0 in /  0 mm
04:01 2.3 °F /  -16.5 °C 1.9 °F /  -16.7 °C 1030.0 in /  34875.8 hPa Calm   3.2 mph /  5.1 km/h 98 % 0.0 in /  0 mm
04:06 2.3 °F /  -16.5 °C 2.1 °F /  -16.6 °C 1030.0 in /  34875.8 hPa Calm   4.3 mph /  6.9 km/h 98 % 0.0 in /  0 mm
04:11 2.7 °F /  -16.3 °C 2.4 °F /  -16.4 °C 1030.0 in /  34875.8 hPa Calm   4.3 mph /  6.9 km/h 98 % 0.0 in /  0 mm
04:16 2.7 °F /  -16.3 °C 2.4 °F /  -16.4 °C 1030.0 in /  34875.8 hPa Calm   1.4 mph /  2.3 km/h 98 % 0.0 in /  0 mm
04:21 2.8 °F /  -16.2 °C 2.6 °F /  -16.3 °C 1030.0 in /  34875.8 hPa Calm     98 % 0.0 in /  0 mm
04:26 2.8 °F /  -16.2 °C 2.6 °F /  -16.3 °C 1030.0 in /  34875.8 hPa Calm     98 % 0.0 in /  0 mm
04:31 2.8 °F /  -16.2 °C 2.6 °F /  -16.3 °C 1030.0 in /  34875.8 hPa Calm   2.6 mph /  4.2 km/h 98 % 0.0 in /  0 mm
04:36 2.8 °F /  -16.2 °C 2.6 °F /  -16.3 °C 1030.0 in /  34875.8 hPa WSW 5.0 mph /  8 km/h 5.8 mph /  9.3 km/h 98 % 0.0 in /  0 mm
04:41 2.9 °F /  -16.2 °C 2.7 °F /  -16.3 °C 1030.0 in /  34875.8 hPa Calm   5.8 mph /  9.3 km/h 98 % 0.0 in /  0 mm
04:46 3.1 °F /  -16.1 °C 2.8 °F /  -16.2 °C 1030.0 in /  34875.8 hPa Calm   4.0 mph /  6.4 km/h 98 % 0.0 in /  0 mm
04:47 3.1 °F /  -16.1 °C 2.8 °F /  -16.2 °C 1030.0 in /  34875.8 hPa Calm   4.0 mph /  6.4 km/h 98 % 0.0 in /  0 mm
04:52 3.2 °F /  -16 °C 2.9 °F /  -16.2 °C 1030.0 in /  34875.8 hPa Calm   4.3 mph /  6.9 km/h 98 % 0.0 in /  0 mm
04:57 3.3 °F /  -15.9 °C 3.1 °F /  -16.1 °C 1030.0 in /  34875.8 hPa West 4.3 mph /  6.9 km/h 4.3 mph /  6.9 km/h 98 % 0.0 in /  0 mm
05:02 3.6 °F /  -15.8 °C 3.2 °F /  -16 °C 1030.0 in /  34875.8 hPa Calm   4.3 mph /  6.9 km/h 98 % 0.0 in /  0 mm
05:07 3.7 °F /  -15.7 °C 3.4 °F /  -15.9 °C 1030.0 in /  34875.8 hPa Calm   4.3 mph /  6.9 km/h 98 % 0.0 in /  0 mm
05:12 4.0 °F /  -15.6 °C 3.7 °F /  -15.7 °C 1030.0 in /  34875.8 hPa WNW 3.2 mph /  5.1 km/h 4.3 mph /  6.9 km/h 98 % 0.0 in /  0 mm
05:17 4.1 °F /  -15.5 °C 3.8 °F /  -15.7 °C 1030.0 in /  34875.8 hPa West 1.4 mph /  2.3 km/h 4.3 mph /  6.9 km/h 98 % 0.0 in /  0 mm
05:22 4.3 °F /  -15.4 °C 4.0 °F /  -15.6 °C 1030.0 in /  34875.8 hPa Calm   4.0 mph /  6.4 km/h 98 % 0.0 in /  0 mm
05:27 4.5 °F /  -15.3 °C 4.2 °F /  -15.4 °C 1030.0 in /  34875.8 hPa Calm   4.3 mph /  6.9 km/h 98 % 0.0 in /  0 mm
05:32 4.3 °F /  -15.4 °C 4.0 °F /  -15.6 °C 1030.0 in /  34875.8 hPa Calm   4.3 mph /  6.9 km/h 98 % 0.0 in /  0 mm
05:37 4.0 °F /  -15.6 °C 3.7 °F /  -15.7 °C 1030.0 in /  34875.8 hPa Calm     98 % 0.0 in /  0 mm
05:42 3.8 °F /  -15.7 °C 3.6 °F /  -15.8 °C 1030.0 in /  34875.8 hPa Calm     98 % 0.0 in /  0 mm
05:47 3.7 °F /  -15.7 °C 3.4 °F /  -15.9 °C 1030.0 in /  34875.8 hPa Calm     98 % 0.0 in /  0 mm
05:52 3.6 °F /  -15.8 °C 3.2 °F /  -16 °C 1030.0 in /  34875.8 hPa Calm     98 % 0.0 in /  0 mm
05:57 3.4 °F /  -15.9 °C 3.2 °F /  -16 °C 1030.0 in /  34875.8 hPa Calm     98 % 0.0 in /  0 mm
06:02 3.3 °F /  -15.9 °C 3.1 °F /  -16.1 °C 1030.0 in /  34875.8 hPa Calm     98 % 0.0 in /  0 mm
06:07 3.2 °F /  -16 °C 2.9 °F /  -16.2 °C 1030.0 in /  34875.8 hPa Calm     98 % 0.0 in /  0 mm
06:12 3.2 °F /  -16 °C 2.9 °F /  -16.2 °C 1030.0 in /  34875.8 hPa Calm     98 % 0.0 in /  0 mm
06:17 2.9 °F /  -16.2 °C 2.7 °F /  -16.3 °C 1030.0 in /  34875.8 hPa Calm     98 % 0.0 in /  0 mm
06:22 2.8 °F /  -16.2 °C 2.6 °F /  -16.3 °C 1030.0 in /  34875.8 hPa Calm     98 % 0.0 in /  0 mm
06:27 2.7 °F /  -16.3 °C 2.4 °F /  -16.4 °C 1030.0 in /  34875.8 hPa Calm     98 % 0.0 in /  0 mm
06:32 2.7 °F /  -16.3 °C 2.4 °F /  -16.4 °C 1030.0 in /  34875.8 hPa Calm     98 % 0.0 in /  0 mm
06:37 2.6 °F /  -16.3 °C 2.3 °F /  -16.5 °C 1029.0 in /  34841.9 hPa Calm     98 % 0.0 in /  0 mm
06:42 2.4 °F /  -16.4 °C 2.2 °F /  -16.6 °C 1029.0 in /  34841.9 hPa Calm     98 % 0.0 in /  0 mm
06:47 2.3 °F /  -16.5 °C 2.1 °F /  -16.6 °C 1029.0 in /  34841.9 hPa Calm     98 % 0.0 in /  0 mm
06:52 2.3 °F /  -16.5 °C 1.9 °F /  -16.7 °C 1029.0 in /  34841.9 hPa Calm     98 % 0.0 in /  0 mm
06:57 2.1 °F /  -16.6 °C 1.8 °F /  -16.8 °C 1029.0 in /  34841.9 hPa Calm     98 % 0.0 in /  0 mm
07:03 1.9 °F /  -16.7 °C 1.6 °F /  -16.9 °C 1029.0 in /  34841.9 hPa Calm     98 % 0.0 in /  0 mm
07:08 1.7 °F /  -16.8 °C 1.4 °F /  -17 °C 1030.0 in /  34875.8 hPa Calm     98 % 0.0 in /  0 mm
07:13 1.4 °F /  -17 °C 1.2 °F /  -17.1 °C 1030.0 in /  34875.8 hPa Calm     98 % 0.0 in /  0 mm
07:18 1.4 °F /  -17 °C 1.2 °F /  -17.1 °C 1030.0 in /  34875.8 hPa Calm     98 % 0.0 in /  0 mm
07:23 1.6 °F /  -16.9 °C 1.3 °F /  -17.1 °C 1029.0 in /  34841.9 hPa Calm     98 % 0.0 in /  0 mm
07:28 1.6 °F /  -16.9 °C 1.3 °F /  -17.1 °C 1029.0 in /  34841.9 hPa Calm     98 % 0.0 in /  0 mm
07:33 1.4 °F /  -17 °C 1.1 °F /  -17.2 °C 1029.0 in /  34841.9 hPa Calm     98 % 0.0 in /  0 mm
07:38 1.4 °F /  -17 °C 1.1 °F /  -17.2 °C 1030.0 in /  34875.8 hPa Calm     98 % 0.0 in /  0 mm
07:43 1.4 °F /  -17 °C 1.1 °F /  -17.2 °C 1030.0 in /  34875.8 hPa Calm     98 % 0.0 in /  0 mm
07:48 1.4 °F /  -17 °C 1.1 °F /  -17.2 °C 1030.0 in /  34875.8 hPa Calm     98 % 0.0 in /  0 mm
07:53 1.4 °F /  -17 °C 1.1 °F /  -17.2 °C 1030.0 in /  34875.8 hPa Calm     98 % 0.0 in /  0 mm
07:58 1.3 °F /  -17.1 °C 1.0 °F /  -17.2 °C 1030.0 in /  34875.8 hPa Calm     98 % 0.0 in /  0 mm
08:03 1.1 °F /  -17.2 °C 0.8 °F /  -17.3 °C 1030.0 in /  34875.8 hPa Calm     98 % 0.0 in /  0 mm
08:08 1.1 °F /  -17.2 °C 0.8 °F /  -17.3 °C 1030.0 in /  34875.8 hPa Calm   5.0 mph /  8 km/h 98 % 0.0 in /  0 mm
08:13 1.1 °F /  -17.2 °C 0.8 °F /  -17.3 °C 1030.0 in /  34875.8 hPa Calm   5.0 mph /  8 km/h 98 % 0.0 in /  0 mm
08:18 1.2 °F /  -17.1 °C 0.9 °F /  -17.3 °C 1030.0 in /  34875.8 hPa Calm     98 % 0.0 in /  0 mm
08:23 1.3 °F /  -17.1 °C 1.0 °F /  -17.2 °C 1030.0 in /  34875.8 hPa Calm     98 % 0.0 in /  0 mm
08:28 1.4 °F /  -17 °C 1.1 °F /  -17.2 °C 1030.0 in /  34875.8 hPa Calm     98 % 0.0 in /  0 mm
08:33 1.6 °F /  -16.9 °C 1.3 °F /  -17.1 °C 1030.0 in /  34875.8 hPa Calm     98 % 0.0 in /  0 mm
08:38 1.6 °F /  -16.9 °C 1.3 °F /  -17.1 °C 1030.0 in /  34875.8 hPa Calm     98 % 0.0 in /  0 mm
08:43 1.7 °F /  -16.8 °C 1.4 °F /  -17 °C 1030.0 in /  34875.8 hPa Calm     98 % 0.0 in /  0 mm
08:48 1.8 °F /  -16.8 °C 1.5 °F /  -16.9 °C 1030.0 in /  34875.8 hPa Calm     98 % 0.0 in /  0 mm
08:53 1.9 °F /  -16.7 °C 1.6 °F /  -16.9 °C 1030.0 in /  34875.8 hPa Calm     98 % 0.0 in /  0 mm
08:58 1.9 °F /  -16.7 °C 1.7 °F /  -16.8 °C 1030.0 in /  34875.8 hPa Calm     98 % 0.0 in /  0 mm
09:03 1.9 °F /  -16.7 °C 1.7 °F /  -16.8 °C 1030.0 in /  34875.8 hPa Calm   4.0 mph /  6.4 km/h 98 % 0.0 in /  0 mm
09:08 2.1 °F /  -16.6 °C 1.8 °F /  -16.8 °C 1030.0 in /  34875.8 hPa Calm   4.0 mph /  6.4 km/h 98 % 0.0 in /  0 mm
09:13 2.2 °F /  -16.6 °C 1.9 °F /  -16.7 °C 1030.0 in /  34875.8 hPa Calm   4.0 mph /  6.4 km/h 98 % 0.0 in /  0 mm
09:18 2.3 °F /  -16.5 °C 1.9 °F /  -16.7 °C 1030.0 in /  34875.8 hPa Calm     98 % 0.0 in /  0 mm
09:23 2.3 °F /  -16.5 °C 2.1 °F /  -16.6 °C 1030.0 in /  34875.8 hPa Calm     98 % 0.0 in /  0 mm
09:28 2.4 °F /  -16.4 °C 2.2 °F /  -16.6 °C 1030.0 in /  34875.8 hPa Calm     98 % 0.0 in /  0 mm
09:33 2.6 °F /  -16.3 °C 2.3 °F /  -16.5 °C 1030.0 in /  34875.8 hPa Calm     98 % 0.0 in /  0 mm
09:38 2.7 °F /  -16.3 °C 2.4 °F /  -16.4 °C 1030.0 in /  34875.8 hPa Calm   1.4 mph /  2.3 km/h 98 % 0.0 in /  0 mm
09:43 2.9 °F /  -16.2 °C 2.7 °F /  -16.3 °C 1030.0 in /  34875.8 hPa West 4.3 mph /  6.9 km/h 4.3 mph /  6.9 km/h 98 % 0.0 in /  0 mm
09:48 3.1 °F /  -16.1 °C 2.8 °F /  -16.2 °C 1030.0 in /  34875.8 hPa West 7.6 mph /  12.2 km/h 7.9 mph /  12.7 km/h 98 % 0.0 in /  0 mm
09:53 3.2 °F /  -16 °C 2.9 °F /  -16.2 °C 1031.0 in /  34909.7 hPa West 3.2 mph /  5.1 km/h 8.7 mph /  14 km/h 98 % 0.0 in /  0 mm
09:58 3.3 °F /  -15.9 °C 3.1 °F /  -16.1 °C 1031.0 in /  34909.7 hPa Calm   8.7 mph /  14 km/h 98 % 0.0 in /  0 mm
10:03 3.4 °F /  -15.9 °C 3.2 °F /  -16 °C 1031.0 in /  34909.7 hPa Calm   5.0 mph /  8 km/h 98 % 0.0 in /  0 mm
10:08 3.7 °F /  -15.7 °C 3.4 °F /  -15.9 °C 1031.0 in /  34909.7 hPa Calm   4.0 mph /  6.4 km/h 98 % 0.0 in /  0 mm
10:13 4.0 °F /  -15.6 °C 3.7 °F /  -15.7 °C 1031.0 in /  34909.7 hPa Calm   5.0 mph /  8 km/h 98 % 0.0 in /  0 mm
10:18 4.2 °F /  -15.4 °C 3.9 °F /  -15.6 °C 1031.0 in /  34909.7 hPa Calm   5.0 mph /  8 km/h 98 % 0.0 in /  0 mm
10:23 4.4 °F /  -15.3 °C 4.1 °F /  -15.5 °C 1030.0 in /  34875.8 hPa Calm   4.0 mph /  6.4 km/h 98 % 0.0 in /  0 mm
10:28 4.6 °F /  -15.2 °C 4.3 °F /  -15.4 °C 1030.0 in /  34875.8 hPa Calm     98 % 0.0 in /  0 mm
10:33 4.9 °F /  -15.1 °C 4.6 °F /  -15.2 °C 1030.0 in /  34875.8 hPa West 5.5 mph /  8.9 km/h 5.5 mph /  8.9 km/h 98 % 0.0 in /  0 mm
10:38 5.2 °F /  -14.9 °C 4.9 °F /  -15.1 °C 1031.0 in /  34909.7 hPa Calm   5.5 mph /  8.9 km/h 98 % 0.0 in /  0 mm
10:43 5.5 °F /  -14.7 °C 5.2 °F /  -14.9 °C 1031.0 in /  34909.7 hPa West 9.7 mph /  15.6 km/h 9.7 mph /  15.6 km/h 98 % 0.0 in /  0 mm
10:48 5.9 °F /  -14.5 °C 5.6 °F /  -14.7 °C 1031.0 in /  34909.7 hPa WSW 4.7 mph /  7.6 km/h 9.7 mph /  15.6 km/h 98 % 0.0 in /  0 mm
10:53 6.0 °F /  -14.4 °C 5.7 °F /  -14.6 °C 1030.0 in /  34875.8 hPa WNW 6.9 mph /  11.1 km/h 13.7 mph /  22 km/h 98 % 0.0 in /  0 mm
10:58 6.2 °F /  -14.3 °C 5.9 °F /  -14.5 °C 1030.0 in /  34875.8 hPa WNW 6.9 mph /  11.1 km/h 13.7 mph /  22 km/h 98 % 0.0 in /  0 mm
11:04 6.4 °F /  -14.2 °C 6.1 °F /  -14.4 °C 1030.0 in /  34875.8 hPa WSW 9.7 mph /  15.6 km/h 13.7 mph /  22 km/h 98 % 0.0 in /  0 mm
11:08 6.4 °F /  -14.2 °C 6.1 °F /  -14.4 °C 1030.0 in /  34875.8 hPa WSW 13.7 mph /  22 km/h 15.8 mph /  25.4 km/h 98 % 0.0 in /  0 mm
11:14 6.6 °F /  -14.1 °C 6.3 °F /  -14.3 °C 1030.0 in /  34875.8 hPa West 10.1 mph /  16.3 km/h 15.8 mph /  25.4 km/h 98 % 0.0 in /  0 mm
11:19 6.7 °F /  -14.1 °C 6.4 °F /  -14.2 °C 1030.0 in /  34875.8 hPa West 5.5 mph /  8.9 km/h 11.6 mph /  18.7 km/h 98 % 0.0 in /  0 mm
11:24 6.8 °F /  -14 °C 6.4 °F /  -14.2 °C 1030.0 in /  34875.8 hPa West 10.1 mph /  16.3 km/h 14.0 mph /  22.5 km/h 98 % 0.0 in /  0 mm
11:29 6.8 °F /  -14 °C 6.6 °F /  -14.1 °C 1030.0 in /  34875.8 hPa WSW 6.1 mph /  9.8 km/h 14.0 mph /  22.5 km/h 98 % 0.0 in /  0 mm
11:34 7.1 °F /  -13.8 °C 6.8 °F /  -14 °C 1030.0 in /  34875.8 hPa North 4.7 mph /  7.6 km/h 12.6 mph /  20.3 km/h 98 % 0.0 in /  0 mm
11:39 7.2 °F /  -13.8 °C 6.8 °F /  -14 °C 1030.0 in /  34875.8 hPa West 9.3 mph /  15 km/h 14.8 mph /  23.8 km/h 98 % 0.0 in /  0 mm
11:44 7.3 °F /  -13.7 °C 6.9 °F /  -13.9 °C 1030.0 in /  34875.8 hPa West 12.6 mph /  20.3 km/h 17.2 mph /  27.7 km/h 98 % 0.0 in /  0 mm
11:49 7.3 °F /  -13.7 °C 7.1 °F /  -13.8 °C 1030.0 in /  34875.8 hPa West 12.2 mph /  19.6 km/h 17.2 mph /  27.7 km/h 98 % 0.0 in /  0 mm
11:54 7.7 °F /  -13.5 °C 7.3 °F /  -13.7 °C 1030.0 in /  34875.8 hPa WSW 12.6 mph /  20.3 km/h 16.9 mph /  27.2 km/h 98 % 0.0 in /  0 mm
11:59 7.7 °F /  -13.5 °C 7.4 °F /  -13.7 °C 1030.0 in /  34875.8 hPa WSW 12.2 mph /  19.6 km/h 16.6 mph /  26.7 km/h 98 % 0.0 in /  0 mm
12:04 7.7 °F /  -13.5 °C 7.4 °F /  -13.7 °C 1030.0 in /  34875.8 hPa WSW 11.6 mph /  18.7 km/h 16.9 mph /  27.2 km/h 98 % 0.0 in /  0 mm
12:09 7.8 °F /  -13.4 °C 7.6 °F /  -13.6 °C 1030.0 in /  34875.8 hPa West 12.2 mph /  19.6 km/h 16.9 mph /  27.2 km/h 98 % 0.0 in /  0 mm
12:14 8.1 °F /  -13.3 °C 7.7 °F /  -13.5 °C 1030.0 in /  34875.8 hPa WSW 14.0 mph /  22.5 km/h 16.3 mph /  26.2 km/h 98 % 0.0 in /  0 mm
12:19 7.9 °F /  -13.4 °C 7.7 °F /  -13.5 °C 1030.0 in /  34875.8 hPa West 17.7 mph /  28.5 km/h 20.6 mph /  33.2 km/h 98 % 0.0 in /  0 mm
12:24 7.9 °F /  -13.4 °C 7.7 °F /  -13.5 °C 1030.0 in /  34875.8 hPa WSW 9.7 mph /  15.6 km/h 20.6 mph /  33.2 km/h 98 % 0.0 in /  0 mm
12:29 7.9 °F /  -13.4 °C 7.7 °F /  -13.5 °C 1030.0 in /  34875.8 hPa West 16.6 mph /  26.7 km/h 16.9 mph /  27.2 km/h 98 % 0.0 in /  0 mm
12:34 8.1 °F /  -13.3 °C 7.7 °F /  -13.5 °C 1030.0 in /  34875.8 hPa WSW 15.4 mph /  24.8 km/h 19.5 mph /  31.4 km/h 98 % 0.0 in /  0 mm
12:39 8.1 °F /  -13.3 °C 7.8 °F /  -13.4 °C 1030.0 in /  34875.8 hPa WSW 16.6 mph /  26.7 km/h 19.5 mph /  31.4 km/h 98 % 0.0 in /  0 mm
12:44 8.1 °F /  -13.3 °C 7.8 °F /  -13.4 °C 1030.0 in /  34875.8 hPa West 16.3 mph /  26.2 km/h 19.8 mph /  31.9 km/h 98 % 0.0 in /  0 mm
12:49 8.4 °F /  -13.1 °C 8.1 °F /  -13.3 °C 1030.0 in /  34875.8 hPa WSW 16.3 mph /  26.2 km/h 19.8 mph /  31.9 km/h 98 % 0.0 in /  0 mm
12:54 8.5 °F /  -13.1 °C 8.2 °F /  -13.2 °C 1030.0 in /  34875.8 hPa WSW 15.1 mph /  24.3 km/h 18.3 mph /  29.5 km/h 98 % 0.0 in /  0 mm
12:59 8.5 °F /  -13.1 °C 8.2 °F /  -13.2 °C 1030.0 in /  34875.8 hPa WSW 10.5 mph /  16.9 km/h 18.3 mph /  29.5 km/h 98 % 0.0 in /  0 mm
13:04 8.5 °F /  -13.1 °C 8.2 °F /  -13.2 °C 1030.0 in /  34875.8 hPa WSW 8.7 mph /  14 km/h 17.2 mph /  27.7 km/h 98 % 0.0 in /  0 mm
13:09 8.4 °F /  -13.1 °C 8.1 °F /  -13.3 °C 1030.0 in /  34875.8 hPa WSW 13.7 mph /  22 km/h 16.3 mph /  26.2 km/h 98 % 0.0 in /  0 mm
13:14 8.3 °F /  -13.2 °C 8.1 °F /  -13.3 °C 1030.0 in /  34875.8 hPa WSW 13.0 mph /  20.9 km/h 17.7 mph /  28.5 km/h 98 % 0.0 in /  0 mm
13:19 8.2 °F /  -13.2 °C 7.9 °F /  -13.4 °C 1030.0 in /  34875.8 hPa WSW 8.7 mph /  14 km/h 17.7 mph /  28.5 km/h 98 % 0.0 in /  0 mm
13:24 8.3 °F /  -13.2 °C 8.1 °F /  -13.3 °C 1029.0 in /  34841.9 hPa WSW 9.0 mph /  14.5 km/h 13.0 mph /  20.9 km/h 98 % 0.0 in /  0 mm
13:29 8.3 °F /  -13.2 °C 8.1 °F /  -13.3 °C 1029.0 in /  34841.9 hPa WSW 10.5 mph /  16.9 km/h 11.9 mph /  19.2 km/h 98 % 0.0 in /  0 mm
13:34 8.3 °F /  -13.2 °C 8.1 °F /  -13.3 °C 1029.0 in /  34841.9 hPa WSW 9.3 mph /  15 km/h 13.0 mph /  20.9 km/h 98 % 0.0 in /  0 mm
13:39 8.3 °F /  -13.2 °C 8.1 °F /  -13.3 °C 1029.0 in /  34841.9 hPa WSW 11.1 mph /  17.9 km/h 13.0 mph /  20.9 km/h 98 % 0.0 in /  0 mm
13:44 8.4 °F /  -13.1 °C 8.1 °F /  -13.3 °C 1029.0 in /  34841.9 hPa WSW 10.1 mph /  16.3 km/h 12.6 mph /  20.3 km/h 98 % 0.0 in /  0 mm
13:49 8.6 °F /  -13 °C 8.3 °F /  -13.2 °C 1029.0 in /  34841.9 hPa West 10.5 mph /  16.9 km/h 11.1 mph /  17.9 km/h 98 % 0.0 in /  0 mm
13:54 8.7 °F /  -12.9 °C 8.4 °F /  -13.1 °C 1028.0 in /  34808.1 hPa WSW 6.1 mph /  9.8 km/h 10.5 mph /  16.9 km/h 98 % 0.0 in /  0 mm
13:59 8.9 °F /  -12.8 °C 8.6 °F /  -13 °C 1028.0 in /  34808.1 hPa WSW 5.8 mph /  9.3 km/h 10.1 mph /  16.3 km/h 98 % 0.0 in /  0 mm
14:04 9.0 °F /  -12.8 °C 8.7 °F /  -12.9 °C 1028.0 in /  34808.1 hPa WSW 5.8 mph /  9.3 km/h 10.5 mph /  16.9 km/h 98 % 0.0 in /  0 mm
14:09 9.2 °F /  -12.7 °C 8.9 °F /  -12.8 °C 1029.0 in /  34841.9 hPa WSW 9.3 mph /  15 km/h 10.5 mph /  16.9 km/h 98 % 0.0 in /  0 mm
14:14 9.3 °F /  -12.6 °C 9.0 °F /  -12.8 °C 1029.0 in /  34841.9 hPa WSW 8.7 mph /  14 km/h 10.5 mph /  16.9 km/h 98 % 0.0 in /  0 mm
14:19 9.4 °F /  -12.6 °C 9.1 °F /  -12.7 °C 1029.0 in /  34841.9 hPa WSW 11.9 mph /  19.2 km/h 11.9 mph /  19.2 km/h 98 % 0.0 in /  0 mm
14:24 9.6 °F /  -12.4 °C 9.3 °F /  -12.6 °C 1030.0 in /  34875.8 hPa WSW 9.7 mph /  15.6 km/h 11.9 mph /  19.2 km/h 98 % 0.0 in /  0 mm
14:29 9.6 °F /  -12.4 °C 9.3 °F /  -12.6 °C 1030.0 in /  34875.8 hPa WSW 8.7 mph /  14 km/h 11.9 mph /  19.2 km/h 98 % 0.0 in /  0 mm
14:34 9.6 °F /  -12.4 °C 9.3 °F /  -12.6 °C 1030.0 in /  34875.8 hPa WSW 7.9 mph /  12.7 km/h 12.2 mph /  19.6 km/h 98 % 0.0 in /  0 mm
14:39 9.7 °F /  -12.4 °C 9.4 °F /  -12.6 °C 1029.0 in /  34841.9 hPa WSW 7.9 mph /  12.7 km/h 12.2 mph /  19.6 km/h 98 % 0.0 in /  0 mm
14:44 9.7 °F /  -12.4 °C 9.4 °F /  -12.6 °C 1029.0 in /  34841.9 hPa WSW 7.9 mph /  12.7 km/h 9.7 mph /  15.6 km/h 98 % 0.0 in /  0 mm
14:49 9.7 °F /  -12.4 °C 9.4 °F /  -12.6 °C 1029.0 in /  34841.9 hPa West 5.8 mph /  9.3 km/h 10.5 mph /  16.9 km/h 98 % 0.0 in /  0 mm
14:54 9.8 °F /  -12.3 °C 9.5 °F /  -12.5 °C 1029.0 in /  34841.9 hPa West 10.5 mph /  16.9 km/h 10.5 mph /  16.9 km/h 98 % 0.0 in /  0 mm
14:59 9.7 °F /  -12.4 °C 9.4 °F /  -12.6 °C 1029.0 in /  34841.9 hPa West 12.6 mph /  20.3 km/h 13.0 mph /  20.9 km/h 98 % 0.0 in /  0 mm
15:04 9.8 °F /  -12.3 °C 9.3 °F /  -12.6 °C 1029.0 in /  34841.9 hPa West 5.5 mph /  8.9 km/h 13.0 mph /  20.9 km/h 97 % 0.0 in /  0 mm
15:09 9.9 °F /  -12.3 °C 9.4 °F /  -12.6 °C 1029.0 in /  34841.9 hPa WSW 10.5 mph /  16.9 km/h 12.6 mph /  20.3 km/h 97 % 0.0 in /  0 mm
15:15 10.0 °F /  -12.2 °C 9.6 °F /  -12.4 °C 1029.0 in /  34841.9 hPa West 8.7 mph /  14 km/h 14.0 mph /  22.5 km/h 97 % 0.0 in /  0 mm
15:20 10.0 °F /  -12.2 °C 9.6 °F /  -12.4 °C 1029.0 in /  34841.9 hPa West 12.2 mph /  19.6 km/h 14.0 mph /  22.5 km/h 97 % 0.0 in /  0 mm
15:25 10.0 °F /  -12.2 °C 9.6 °F /  -12.4 °C 1028.0 in /  34808.1 hPa West 7.2 mph /  11.6 km/h 13.7 mph /  22 km/h 97 % 0.0 in /  0 mm
15:30 10.0 °F /  -12.2 °C 9.4 °F /  -12.6 °C 1028.0 in /  34808.1 hPa WSW 8.7 mph /  14 km/h 13.7 mph /  22 km/h 96 % 0.0 in /  0 mm
15:35 10.3 °F /  -12.1 °C 9.7 °F /  -12.4 °C 1028.0 in /  34808.1 hPa WSW 8.7 mph /  14 km/h 12.6 mph /  20.3 km/h 96 % 0.0 in /  0 mm
15:40 10.5 °F /  -11.9 °C 9.9 °F /  -12.3 °C 1028.0 in /  34808.1 hPa WSW 9.0 mph /  14.5 km/h 12.6 mph /  20.3 km/h 96 % 0.0 in /  0 mm
15:45 10.7 °F /  -11.8 °C 10.1 °F /  -12.2 °C 1028.0 in /  34808.1 hPa WSW 6.1 mph /  9.8 km/h 10.8 mph /  17.4 km/h 96 % 0.0 in /  0 mm
15:50 10.7 °F /  -11.8 °C 10.1 °F /  -12.2 °C 1028.0 in /  34808.1 hPa WSW 6.9 mph /  11.1 km/h 10.1 mph /  16.3 km/h 96 % 0.0 in /  0 mm
15:55 11.1 °F /  -11.6 °C 10.3 °F /  -12.1 °C 1028.0 in /  34808.1 hPa WSW 6.4 mph /  10.3 km/h 10.1 mph /  16.3 km/h 95 % 0.0 in /  0 mm
16:00 11.7 °F /  -11.3 °C 10.9 °F /  -11.7 °C 1028.0 in /  34808.1 hPa WSW 6.1 mph /  9.8 km/h 10.1 mph /  16.3 km/h 95 % 0.0 in /  0 mm
16:05 12.1 °F /  -11.1 °C 11.3 °F /  -11.5 °C 1028.0 in /  34808.1 hPa West 7.9 mph /  12.7 km/h 9.0 mph /  14.5 km/h 95 % 0.0 in /  0 mm
16:10 12.1 °F /  -11.1 °C 11.1 °F /  -11.6 °C 1028.0 in /  34808.1 hPa West 10.1 mph /  16.3 km/h 11.6 mph /  18.7 km/h 94 % 0.0 in /  0 mm
16:15 11.9 °F /  -11.2 °C 10.8 °F /  -11.8 °C 1028.0 in /  34808.1 hPa West 10.5 mph /  16.9 km/h 12.2 mph /  19.6 km/h 93 % 0.0 in /  0 mm
16:20 11.9 °F /  -11.2 °C 10.7 °F /  -11.8 °C 1028.0 in /  34808.1 hPa West 9.7 mph /  15.6 km/h 12.2 mph /  19.6 km/h 92 % 0.0 in /  0 mm
16:25 11.8 °F /  -11.2 °C 10.3 °F /  -12.1 °C 1028.0 in /  34808.1 hPa West 9.7 mph /  15.6 km/h 12.2 mph /  19.6 km/h 90 % 0.0 in /  0 mm
16:30 11.8 °F /  -11.2 °C 10.0 °F /  -12.2 °C 1028.0 in /  34808.1 hPa West 14.0 mph /  22.5 km/h 14.0 mph /  22.5 km/h 89 % 0.0 in /  0 mm
16:35 11.8 °F /  -11.2 °C 9.7 °F /  -12.4 °C 1028.0 in /  34808.1 hPa WSW 8.7 mph /  14 km/h 14.0 mph /  22.5 km/h 87 % 0.0 in /  0 mm
16:40 11.4 °F /  -11.4 °C 9.2 °F /  -12.7 °C 1028.0 in /  34808.1 hPa West 9.3 mph /  15 km/h 14.0 mph /  22.5 km/h 86 % 0.0 in /  0 mm
16:45 11.1 °F /  -11.6 °C 8.7 °F /  -12.9 °C 1028.0 in /  34808.1 hPa West 5.8 mph /  9.3 km/h 14.0 mph /  22.5 km/h 85 % 0.0 in /  0 mm
16:50 10.9 °F /  -11.7 °C 8.4 °F /  -13.1 °C 1028.0 in /  34808.1 hPa WSW 10.5 mph /  16.9 km/h 14.0 mph /  22.5 km/h 85 % 0.0 in /  0 mm
16:55 10.6 °F /  -11.9 °C 8.3 °F /  -13.2 °C 1028.0 in /  34808.1 hPa WSW 9.7 mph /  15.6 km/h 14.0 mph /  22.5 km/h 86 % 0.0 in /  0 mm
17:00 10.5 °F /  -11.9 °C 8.2 °F /  -13.2 °C 1028.0 in /  34808.1 hPa WSW 8.7 mph /  14 km/h 13.0 mph /  20.9 km/h 86 % 0.0 in /  0 mm
17:05 10.2 °F /  -12.1 °C 8.1 °F /  -13.3 °C 1028.0 in /  34808.1 hPa WSW 6.9 mph /  11.1 km/h 11.6 mph /  18.7 km/h 87 % 0.0 in /  0 mm
17:10 10.0 °F /  -12.2 °C 7.9 °F /  -13.4 °C 1028.0 in /  34808.1 hPa WSW 6.4 mph /  10.3 km/h 11.6 mph /  18.7 km/h 87 % 0.0 in /  0 mm
17:15 9.9 °F /  -12.3 °C 7.8 °F /  -13.4 °C 1028.0 in /  34808.1 hPa WSW 8.7 mph /  14 km/h 10.5 mph /  16.9 km/h 87 % 0.0 in /  0 mm
17:20 9.6 °F /  -12.4 °C 7.7 °F /  -13.5 °C 1028.0 in /  34808.1 hPa WSW 6.4 mph /  10.3 km/h 10.5 mph /  16.9 km/h 88 % 0.0 in /  0 mm
17:25 9.3 °F /  -12.6 °C 7.4 °F /  -13.7 °C 1028.0 in /  34808.1 hPa WSW 7.2 mph /  11.6 km/h 9.3 mph /  15 km/h 88 % 0.0 in /  0 mm
17:31 9.2 °F /  -12.7 °C 7.5 °F /  -13.6 °C 1028.0 in /  34808.1 hPa WSW 7.9 mph /  12.7 km/h 9.0 mph /  14.5 km/h 89 % 0.0 in /  0 mm
17:36 9.0 °F /  -12.8 °C 7.3 °F /  -13.7 °C 1028.0 in /  34808.1 hPa WSW 6.4 mph /  10.3 km/h 9.0 mph /  14.5 km/h 89 % 0.0 in /  0 mm
17:41 8.8 °F /  -12.9 °C 7.1 °F /  -13.8 °C 1028.0 in /  34808.1 hPa West 6.1 mph /  9.8 km/h 9.0 mph /  14.5 km/h 89 % 0.0 in /  0 mm
17:46 8.7 °F /  -12.9 °C 7.2 °F /  -13.8 °C 1028.0 in /  34808.1 hPa West 7.6 mph /  12.2 km/h 8.7 mph /  14 km/h 90 % 0.0 in /  0 mm
17:51 8.5 °F /  -13.1 °C 7.0 °F /  -13.9 °C 1028.0 in /  34808.1 hPa West 7.6 mph /  12.2 km/h 8.7 mph /  14 km/h 90 % 0.0 in /  0 mm
17:56 8.3 °F /  -13.2 °C 6.8 °F /  -14 °C 1028.0 in /  34808.1 hPa WSW 6.1 mph /  9.8 km/h 8.7 mph /  14 km/h 90 % 0.0 in /  0 mm
18:01 8.2 °F /  -13.2 °C 6.7 °F /  -14.1 °C 1028.0 in /  34808.1 hPa West 6.4 mph /  10.3 km/h 8.7 mph /  14 km/h 90 % 0.0 in /  0 mm
18:06 8.1 °F /  -13.3 °C 6.6 °F /  -14.1 °C 1028.0 in /  34808.1 hPa West 5.8 mph /  9.3 km/h 7.9 mph /  12.7 km/h 90 % 0.0 in /  0 mm
18:11 8.1 °F /  -13.3 °C 6.7 °F /  -14.1 °C 1027.0 in /  34774.2 hPa West 5.0 mph /  8 km/h 10.1 mph /  16.3 km/h 91 % 0.0 in /  0 mm
18:16 7.8 °F /  -13.4 °C 6.4 °F /  -14.2 °C 1027.0 in /  34774.2 hPa West 6.9 mph /  11.1 km/h 10.1 mph /  16.3 km/h 91 % 0.0 in /  0 mm
18:21 7.8 °F /  -13.4 °C 6.4 °F /  -14.2 °C 1027.0 in /  34774.2 hPa West 8.7 mph /  14 km/h 10.5 mph /  16.9 km/h 91 % 0.0 in /  0 mm
18:26 7.7 °F /  -13.5 °C 6.5 °F /  -14.2 °C 1028.0 in /  34808.1 hPa West 9.0 mph /  14.5 km/h 10.5 mph /  16.9 km/h 92 % 0.0 in /  0 mm
18:31 7.6 °F /  -13.6 °C 6.3 °F /  -14.3 °C 1028.0 in /  34808.1 hPa West 8.7 mph /  14 km/h 10.1 mph /  16.3 km/h 92 % 0.0 in /  0 mm
18:36 7.3 °F /  -13.7 °C 6.1 °F /  -14.4 °C 1028.0 in /  34808.1 hPa West 5.0 mph /  8 km/h 10.5 mph /  16.9 km/h 92 % 0.0 in /  0 mm
18:41 7.3 °F /  -13.7 °C 6.1 °F /  -14.4 °C 1028.0 in /  34808.1 hPa West 4.3 mph /  6.9 km/h 10.5 mph /  16.9 km/h 92 % 0.0 in /  0 mm
18:46 7.1 °F /  -13.8 °C 5.8 °F /  -14.6 °C 1028.0 in /  34808.1 hPa West 7.9 mph /  12.7 km/h 9.3 mph /  15 km/h 92 % 0.0 in /  0 mm
18:51 6.9 °F /  -13.9 °C 5.7 °F /  -14.6 °C 1028.0 in /  34808.1 hPa WNW 6.1 mph /  9.8 km/h 9.3 mph /  15 km/h 92 % 0.0 in /  0 mm
18:56 6.9 °F /  -13.9 °C 5.9 °F /  -14.5 °C 1028.0 in /  34808.1 hPa West 4.3 mph /  6.9 km/h 9.0 mph /  14.5 km/h 93 % 0.0 in /  0 mm
19:01 6.8 °F /  -14 °C 5.8 °F /  -14.6 °C 1028.0 in /  34808.1 hPa WSW 5.0 mph /  8 km/h 9.0 mph /  14.5 km/h 93 % 0.0 in /  0 mm
19:06 6.4 °F /  -14.2 °C 5.3 °F /  -14.8 °C 1028.0 in /  34808.1 hPa West 6.1 mph /  9.8 km/h 7.9 mph /  12.7 km/h 92 % 0.0 in /  0 mm
19:11 6.4 °F /  -14.2 °C 5.4 °F /  -14.8 °C 1028.0 in /  34808.1 hPa West 8.7 mph /  14 km/h 9.3 mph /  15 km/h 93 % 0.0 in /  0 mm
19:16 6.4 °F /  -14.2 °C 5.4 °F /  -14.8 °C 1028.0 in /  34808.1 hPa West 6.9 mph /  11.1 km/h 9.3 mph /  15 km/h 93 % 0.0 in /  0 mm
19:21 6.4 °F /  -14.2 °C 5.5 °F /  -14.7 °C 1028.0 in /  34808.1 hPa West 5.0 mph /  8 km/h 8.7 mph /  14 km/h 94 % 0.0 in /  0 mm
19:26 6.4 °F /  -14.2 °C 5.5 °F /  -14.7 °C 1028.0 in /  34808.1 hPa West 6.4 mph /  10.3 km/h 9.0 mph /  14.5 km/h 94 % 0.0 in /  0 mm
19:31 6.4 °F /  -14.2 °C 5.5 °F /  -14.7 °C 1028.0 in /  34808.1 hPa West 6.4 mph /  10.3 km/h 10.5 mph /  16.9 km/h 94 % 0.0 in /  0 mm
19:36 6.4 °F /  -14.2 °C 5.5 °F /  -14.7 °C 1028.0 in /  34808.1 hPa WSW 7.9 mph /  12.7 km/h 10.5 mph /  16.9 km/h 94 % 0.0 in /  0 mm
19:41 6.3 °F /  -14.3 °C 5.4 °F /  -14.8 °C 1029.0 in /  34841.9 hPa West 7.9 mph /  12.7 km/h 9.7 mph /  15.6 km/h 94 % 0.0 in /  0 mm
19:46 6.3 °F /  -14.3 °C 5.4 °F /  -14.8 °C 1029.0 in /  34841.9 hPa West 9.7 mph /  15.6 km/h 10.5 mph /  16.9 km/h 94 % 0.0 in /  0 mm
19:51 6.3 °F /  -14.3 °C 5.6 °F /  -14.7 °C 1029.0 in /  34841.9 hPa West 6.9 mph /  11.1 km/h 10.5 mph /  16.9 km/h 95 % 0.0 in /  0 mm
19:56 6.3 °F /  -14.3 °C 5.6 °F /  -14.7 °C 1028.0 in /  34808.1 hPa West 6.9 mph /  11.1 km/h 10.5 mph /  16.9 km/h 95 % 0.0 in /  0 mm
20:01 6.2 °F /  -14.3 °C 5.4 °F /  -14.8 °C 1028.0 in /  34808.1 hPa WSW 6.1 mph /  9.8 km/h 8.7 mph /  14 km/h 95 % 0.0 in /  0 mm
20:06 6.2 °F /  -14.3 °C 5.4 °F /  -14.8 °C 1028.0 in /  34808.1 hPa WSW 9.0 mph /  14.5 km/h 9.3 mph /  15 km/h 95 % 0.0 in /  0 mm
20:11 6.2 °F /  -14.3 °C 5.4 °F /  -14.8 °C 1029.0 in /  34841.9 hPa West 7.9 mph /  12.7 km/h 9.3 mph /  15 km/h 95 % 0.0 in /  0 mm
20:16 6.3 °F /  -14.3 °C 5.6 °F /  -14.7 °C 1029.0 in /  34841.9 hPa West 5.0 mph /  8 km/h 9.0 mph /  14.5 km/h 95 % 0.0 in /  0 mm
20:21 6.3 °F /  -14.3 °C 5.6 °F /  -14.7 °C 1029.0 in /  34841.9 hPa West 6.9 mph /  11.1 km/h 7.9 mph /  12.7 km/h 95 % 0.0 in /  0 mm
20:27 6.3 °F /  -14.3 °C 5.7 °F /  -14.6 °C 1028.0 in /  34808.1 hPa West 5.0 mph /  8 km/h 7.6 mph /  12.2 km/h 96 % 0.0 in /  0 mm
20:32 6.4 °F /  -14.2 °C 5.8 °F /  -14.6 °C 1028.0 in /  34808.1 hPa West 7.9 mph /  12.7 km/h 7.9 mph /  12.7 km/h 96 % 0.0 in /  0 mm
20:37 6.4 °F /  -14.2 °C 5.8 °F /  -14.6 °C 1028.0 in /  34808.1 hPa WNW 6.4 mph /  10.3 km/h 8.7 mph /  14 km/h 96 % 0.0 in /  0 mm
20:42 6.4 °F /  -14.2 °C 5.8 °F /  -14.6 °C 1028.0 in /  34808.1 hPa West 5.8 mph /  9.3 km/h 8.7 mph /  14 km/h 96 % 0.0 in /  0 mm
20:47 6.3 °F /  -14.3 °C 5.7 °F /  -14.6 °C 1028.0 in /  34808.1 hPa WSW 7.6 mph /  12.2 km/h 7.9 mph /  12.7 km/h 96 % 0.0 in /  0 mm
20:52 6.2 °F /  -14.3 °C 5.6 °F /  -14.7 °C 1028.0 in /  34808.1 hPa WSW 5.8 mph /  9.3 km/h 7.6 mph /  12.2 km/h 96 % 0.0 in /  0 mm
20:57 6.1 °F /  -14.4 °C 5.5 °F /  -14.7 °C 1029.0 in /  34841.9 hPa WSW 5.0 mph /  8 km/h 6.9 mph /  11.1 km/h 96 % 0.0 in /  0 mm
21:02 6.0 °F /  -14.4 °C 5.4 °F /  -14.8 °C 1029.0 in /  34841.9 hPa WSW 6.4 mph /  10.3 km/h 7.6 mph /  12.2 km/h 96 % 0.0 in /  0 mm
21:07 5.9 °F /  -14.5 °C 5.3 °F /  -14.8 °C 1028.0 in /  34808.1 hPa WSW 8.7 mph /  14 km/h 9.0 mph /  14.5 km/h 96 % 0.0 in /  0 mm
21:12 6.0 °F /  -14.4 °C 5.4 °F /  -14.8 °C 1028.0 in /  34808.1 hPa WSW 8.7 mph /  14 km/h 10.5 mph /  16.9 km/h 96 % 0.0 in /  0 mm
21:17 6.1 °F /  -14.4 °C 5.5 °F /  -14.7 °C 1028.0 in /  34808.1 hPa WSW 9.3 mph /  15 km/h 11.6 mph /  18.7 km/h 96 % 0.0 in /  0 mm
21:22 6.3 °F /  -14.3 °C 5.7 °F /  -14.6 °C 1028.0 in /  34808.1 hPa West 12.6 mph /  20.3 km/h 12.6 mph /  20.3 km/h 96 % 0.0 in /  0 mm
21:27 6.4 °F /  -14.2 °C 5.9 °F /  -14.5 °C 1028.0 in /  34808.1 hPa West 9.3 mph /  15 km/h 13.0 mph /  20.9 km/h 97 % 0.0 in /  0 mm
21:32 6.4 °F /  -14.2 °C 6.0 °F /  -14.4 °C 1028.0 in /  34808.1 hPa West 10.8 mph /  17.4 km/h 13.0 mph /  20.9 km/h 97 % 0.0 in /  0 mm
21:37 6.6 °F /  -14.1 °C 6.1 °F /  -14.4 °C 1028.0 in /  34808.1 hPa WSW 10.1 mph /  16.3 km/h 13.7 mph /  22 km/h 97 % 0.0 in /  0 mm
21:42 6.7 °F /  -14.1 °C 6.2 °F /  -14.3 °C 1028.0 in /  34808.1 hPa WSW 9.7 mph /  15.6 km/h 13.7 mph /  22 km/h 97 % 0.0 in /  0 mm
21:47 6.7 °F /  -14.1 °C 6.2 °F /  -14.3 °C 1028.0 in /  34808.1 hPa West 9.0 mph /  14.5 km/h 10.5 mph /  16.9 km/h 97 % 0.0 in /  0 mm
21:52 6.7 °F /  -14.1 °C 6.2 °F /  -14.3 °C 1028.0 in /  34808.1 hPa West 6.9 mph /  11.1 km/h 10.5 mph /  16.9 km/h 97 % 0.0 in /  0 mm
21:57 6.7 °F /  -14.1 °C 6.2 °F /  -14.3 °C 1028.0 in /  34808.1 hPa West 6.4 mph /  10.3 km/h 9.3 mph /  15 km/h 97 % 0.0 in /  0 mm
22:02 6.6 °F /  -14.1 °C 6.1 °F /  -14.4 °C 1028.0 in /  34808.1 hPa WSW 6.9 mph /  11.1 km/h 9.3 mph /  15 km/h 97 % 0.0 in /  0 mm
22:07 6.6 °F /  -14.1 °C 6.1 °F /  -14.4 °C 1028.0 in /  34808.1 hPa WSW 6.9 mph /  11.1 km/h 9.7 mph /  15.6 km/h 97 % 0.0 in /  0 mm
22:12 6.6 °F /  -14.1 °C 6.1 °F /  -14.4 °C 1028.0 in /  34808.1 hPa WSW 9.0 mph /  14.5 km/h 10.8 mph /  17.4 km/h 97 % 0.0 in /  0 mm
22:17 6.6 °F /  -14.1 °C 6.1 °F /  -14.4 °C 1028.0 in /  34808.1 hPa WSW 9.0 mph /  14.5 km/h 10.8 mph /  17.4 km/h 97 % 0.0 in /  0 mm
22:22 6.4 °F /  -14.2 °C 6.0 °F /  -14.4 °C 1028.0 in /  34808.1 hPa West 10.1 mph /  16.3 km/h 11.9 mph /  19.2 km/h 97 % 0.0 in /  0 mm
22:27 6.6 °F /  -14.1 °C 6.1 °F /  -14.4 °C 1028.0 in /  34808.1 hPa West 9.3 mph /  15 km/h 12.2 mph /  19.6 km/h 97 % 0.0 in /  0 mm
22:32 6.6 °F /  -14.1 °C 6.1 °F /  -14.4 °C 1028.0 in /  34808.1 hPa WSW 11.9 mph /  19.2 km/h 12.2 mph /  19.6 km/h 97 % 0.0 in /  0 mm
22:38 6.6 °F /  -14.1 °C 6.1 °F /  -14.4 °C 1027.0 in /  34774.2 hPa WSW 10.5 mph /  16.9 km/h 12.2 mph /  19.6 km/h 97 % 0.0 in /  0 mm
22:43 6.7 °F /  -14.1 °C 6.2 °F /  -14.3 °C 1027.0 in /  34774.2 hPa West 10.1 mph /  16.3 km/h 13.0 mph /  20.9 km/h 97 % 0.0 in /  0 mm
22:48 6.7 °F /  -14.1 °C 6.2 °F /  -14.3 °C 1027.0 in /  34774.2 hPa WSW 9.0 mph /  14.5 km/h 13.0 mph /  20.9 km/h 97 % 0.0 in /  0 mm
22:53 6.7 °F /  -14.1 °C 6.2 °F /  -14.3 °C 1027.0 in /  34774.2 hPa West 12.2 mph /  19.6 km/h 12.2 mph /  19.6 km/h 97 % 0.0 in /  0 mm
22:58 6.7 °F /  -14.1 °C 6.4 °F /  -14.2 °C 1027.0 in /  34774.2 hPa West 7.2 mph /  11.6 km/h 12.2 mph /  19.6 km/h 98 % 0.0 in /  0 mm
23:03 6.8 °F /  -14 °C 6.4 °F /  -14.2 °C 1027.0 in /  34774.2 hPa WSW 10.5 mph /  16.9 km/h 13.0 mph /  20.9 km/h 98 % 0.0 in /  0 mm
23:08 6.7 °F /  -14.1 °C 6.4 °F /  -14.2 °C 1027.0 in /  34774.2 hPa WSW 9.3 mph /  15 km/h 13.0 mph /  20.9 km/h 98 % 0.0 in /  0 mm
23:13 6.7 °F /  -14.1 °C 6.4 °F /  -14.2 °C 1027.0 in /  34774.2 hPa West 7.9 mph /  12.7 km/h 12.2 mph /  19.6 km/h 98 % 0.0 in /  0 mm
23:18 6.7 °F /  -14.1 °C 6.4 °F /  -14.2 °C 1027.0 in /  34774.2 hPa WSW 6.4 mph /  10.3 km/h 10.1 mph /  16.3 km/h 98 % 0.0 in /  0 mm
23:23 6.6 °F /  -14.1 °C 6.3 °F /  -14.3 °C 1027.0 in /  34774.2 hPa West 7.9 mph /  12.7 km/h 10.1 mph /  16.3 km/h 98 % 0.0 in /  0 mm
23:28 6.7 °F /  -14.1 °C 6.4 °F /  -14.2 °C 1027.0 in /  34774.2 hPa West 7.9 mph /  12.7 km/h 10.5 mph /  16.9 km/h 98 % 0.0 in /  0 mm
23:33 6.7 °F /  -14.1 °C 6.4 °F /  -14.2 °C 1027.0 in /  34774.2 hPa West 7.9 mph /  12.7 km/h 10.5 mph /  16.9 km/h 98 % 0.0 in /  0 mm
23:38 6.6 °F /  -14.1 °C 6.3 °F /  -14.3 °C 1027.0 in /  34774.2 hPa West 7.9 mph /  12.7 km/h 10.1 mph /  16.3 km/h 98 % 0.0 in /  0 mm
23:43 6.6 °F /  -14.1 °C 6.3 °F /  -14.3 °C 1027.0 in /  34774.2 hPa WSW 6.9 mph /  11.1 km/h 9.3 mph /  15 km/h 98 % 0.0 in /  0 mm
23:48 6.4 °F /  -14.2 °C 6.2 °F /  -14.3 °C 1027.0 in /  34774.2 hPa West 7.9 mph /  12.7 km/h 9.3 mph /  15 km/h 98 % 0.0 in /  0 mm
23:53 6.4 °F /  -14.2 °C 5.9 °F /  -14.5 °C 1027.0 in /  34774.2 hPa WSW 6.9 mph /  11.1 km/h 9.0 mph /  14.5 km/h 97 % 0.0 in /  0 mm
23:58 6.3 °F /  -14.3 °C 5.8 °F /  -14.6 °C 1027.0 in /  34774.2 hPa West 6.4 mph /  10.3 km/h 7.9 mph /  12.7 km/h 97 % 0.0 in /  0 mm
Le Gheer Warneton
Courtoisie de Weather Underground - 2.25 mb

Mise a jour :
Généré par Cumulus ()